Airfield :
LOGIN :

Register | Disclaimer

   EN    FR    IT 

 










Legend :    VFR   Marginal VFR   IFR   Intensive IFR   Very Intensive IFR
Visi :
Ceiling :
>= 8 km
>= 3000ft
5 to 8 km
1000 to 3000 ft
1500m to 5 km
500 to 1000 ft
800 to 1500m
200 to 500 ft
< 800m
< 200 ft
Symbols :   Thunderstorms  Fog  Heavy snow  Heavy precipitations  Wind > 20 kt
SIGMETs :     Misc.  Thunderstorms  Icing  Turbulence  Mountain Waves  Volcanic Ashes







- Airport Elevation : 13 ft
- IATA code : OST


EBOS - Oostend bruges Int.

CURRENT METAR :
  • 121350Z 26010KT 9999 FEW016 SCT045 05/02 Q1010 NOSIG

EXPIRED METARs :
  • 121320Z 27010KT 9999 FEW016 SCT045 05/02 Q1010 NOSIG
  • 121250Z 26011KT 9999 FEW016TCU SCT040 04/01 Q1009 NOSIG
  • 121220Z 24006KT 220V280 9999 SCT016TCU BKN040 04/01 Q1009 NOSIG
  • 121150Z 23009KT 9999 SCT016TCU BKN040 03/01 Q1009 NOSIG
  • 121120Z 23009KT 9999 -SHRAGS SCT016TCU BKN040 04/01 Q1009 NOSIG

TAF TAF EBOS
Valid from the 12 at 12:00 until the 13 at 18:00 UTC


121110Z 1212/1318 27010KT 9999 SCT012 SCT040
TEMPO 1212/1213 2500 SHRASNGS SHRA BKN008 BKN012CB
BECMG 1216/1218 20010KT
TEMPO 1300/1307 19020G38KT
TEMPO 1303/1306 4000 RADZ SCT007 BKN009
TEMPO 1312/1318 22018G38KT
TEMPO 1316/1318 4000 RADZ SCT008 BKN012
No reported NOTAMs for that airfield.



MET'MAP, your aeronautical weather chart ! - Copyright ORBIFLY December 2007 - Disclaimer

ORBIFLY MET'MAP TEAM :

Programming & Development : Alexandra Zaïnal
Concept & Development : Baudouin d'Aumeries
Co-Development & Prog : Marc-Olivier Méhu
Technical & hardware support : Manuel Goepfert

Contact : metmap@orbifly.com




SOURCES & CREDITS :

   NOAA